createdAt,value
2018-10-19T00:02:10.834Z,33.35
2018-10-19T00:04:38.874Z,32.17
2018-10-19T00:07:06.203Z,29.87
2018-10-19T00:09:33.861Z,30.30
2018-10-19T00:12:01.401Z,32.55
2018-10-19T00:14:30.174Z,34.60
2018-10-19T00:16:57.719Z,33.40
2018-10-19T00:19:26.034Z,31.00
2018-10-19T00:21:53.431Z,32.50
2018-10-19T00:24:20.649Z,31.95
2018-10-19T00:26:50.202Z,33.80
2018-10-19T00:29:18.487Z,32.93
2018-10-19T00:31:47.056Z,32.60
2018-10-19T00:34:14.862Z,30.52
2018-10-19T00:36:42.289Z,32.93
2018-10-19T00:39:11.582Z,34.58
2018-10-19T00:41:38.942Z,32.50
2018-10-19T00:44:06.696Z,33.10
2018-10-19T00:46:34.184Z,32.15
2018-10-19T00:49:03.876Z,32.03
2018-10-19T00:51:31.239Z,32.87
2018-10-19T00:54:00.123Z,31.87
2018-10-19T00:56:34.051Z,31.48
2018-10-19T00:59:01.891Z,31.77
2018-10-19T01:01:29.752Z,35.38
2018-10-19T01:03:57.135Z,30.77
2018-10-19T01:06:24.625Z,31.48
2018-10-19T01:08:54.121Z,32.33
2018-10-19T01:11:22.862Z,31.85
2018-10-19T01:13:50.307Z,35.43
2018-10-19T01:16:17.732Z,36.25
2018-10-19T01:18:45.158Z,32.33
2018-10-19T01:21:12.597Z,35.58
2018-10-19T01:23:40.465Z,36.83
2018-10-19T01:26:08.151Z,34.80
2018-10-19T01:28:36.331Z,34.27
2018-10-19T01:31:03.665Z,34.58
2018-10-19T01:33:31.161Z,39.23
2018-10-19T01:36:00.482Z,37.13
2018-10-19T01:38:28.017Z,34.90
2018-10-19T01:40:55.667Z,35.78
2018-10-19T01:43:23.072Z,34.45
2018-10-19T01:45:55.423Z,35.38
2018-10-19T01:48:23.411Z,35.30
2018-10-19T01:50:52.254Z,33.38
2018-10-19T01:53:21.889Z,34.35
2018-10-19T01:55:52.374Z,35.58
2018-10-19T01:58:20.003Z,34.15
2018-10-19T02:00:53.500Z,36.28
2018-10-19T02:03:21.082Z,36.23
2018-10-19T02:05:48.485Z,34.45
2018-10-19T02:08:15.888Z,35.05
2018-10-19T02:10:44.169Z,35.55
2018-10-19T02:13:13.207Z,33.13
2018-10-19T02:15:40.648Z,35.88
2018-10-19T02:18:08.026Z,35.75
2018-10-19T02:20:35.483Z,34.75
2018-10-19T02:23:02.735Z,36.50
2018-10-19T02:25:30.179Z,37.08
2018-10-19T02:27:57.809Z,39.63
2018-10-19T02:30:28.100Z,40.15
2018-10-19T02:32:57.714Z,39.88
2018-10-19T02:35:26.269Z,39.67
2018-10-19T02:37:54.546Z,33.90
2018-10-19T02:40:23.188Z,32.15
2018-10-19T02:42:51.554Z,34.03
2018-10-19T02:45:19.397Z,33.25
2018-10-19T02:47:47.104Z,33.23
2018-10-19T02:50:14.456Z,35.20
2018-10-19T02:52:44.811Z,30.65
2018-10-19T02:55:12.253Z,34.27
2018-10-19T02:57:40.748Z,34.35
2018-10-19T03:00:09.680Z,34.15
2018-10-19T03:02:37.217Z,33.70
2018-10-19T03:05:05.740Z,33.35
2018-10-19T03:07:33.327Z,32.10
2018-10-19T03:10:00.714Z,34.92
2018-10-19T03:12:30.222Z,33.95
2018-10-19T03:15:00.233Z,36.30
2018-10-19T03:17:27.735Z,38.38
2018-10-19T03:19:55.398Z,39.85
2018-10-19T03:22:23.680Z,39.90
2018-10-19T03:24:52.113Z,38.70
2018-10-19T03:27:20.144Z,34.88
2018-10-19T03:29:47.348Z,35.55
2018-10-19T03:33:39.929Z,37.53
2018-10-19T03:36:07.702Z,38.10
2018-10-19T03:38:36.336Z,37.20
2018-10-19T03:41:04.906Z,36.03
2018-10-19T03:43:32.353Z,34.90
2018-10-19T03:46:00.002Z,31.62
2018-10-19T03:48:28.083Z,32.73
2018-10-19T03:50:57.749Z,33.70
2018-10-19T03:53:25.120Z,32.23
2018-10-19T03:55:53.380Z,29.92
2018-10-19T03:58:20.855Z,30.27
2018-10-19T04:00:48.459Z,39.20
2018-10-19T04:03:15.791Z,39.92
2018-10-19T04:05:43.964Z,41.83
2018-10-19T04:08:11.476Z,38.38
2018-10-19T04:10:38.841Z,37.13
2018-10-19T04:13:06.200Z,31.05
2018-10-19T04:15:33.671Z,33.92
2018-10-19T04:18:01.224Z,34.78
2018-10-19T04:20:29.576Z,37.85
2018-10-19T04:23:03.957Z,37.73
2018-10-19T04:25:31.526Z,37.10
2018-10-19T04:27:59.278Z,38.55
2018-10-19T04:30:28.853Z,41.63
2018-10-19T04:32:58.691Z,41.20
2018-10-19T04:35:28.247Z,43.10
2018-10-19T04:37:55.571Z,42.67
2018-10-19T04:40:23.367Z,39.78
2018-10-19T04:42:52.930Z,40.33
2018-10-19T04:45:22.643Z,40.87
2018-10-19T04:47:50.210Z,39.75
2018-10-19T04:50:18.329Z,44.85
2018-10-19T04:52:45.902Z,42.90
2018-10-19T04:55:15.242Z,40.95
2018-10-19T04:57:44.511Z,42.23
2018-10-19T05:00:13.919Z,40.17
2018-10-19T05:02:43.997Z,35.85
2018-10-19T05:05:11.547Z,37.17
2018-10-19T05:07:39.210Z,34.05
2018-10-19T05:10:07.735Z,35.45
2018-10-19T05:12:35.157Z,34.27
2018-10-19T05:15:03.010Z,40.65
2018-10-19T05:17:31.466Z,38.40
2018-10-19T05:20:01.036Z,42.83
2018-10-19T05:22:28.802Z,39.80
2018-10-19T05:24:57.844Z,43.33
2018-10-19T05:27:26.252Z,41.90
2018-10-19T05:29:53.692Z,42.88
2018-10-19T05:32:23.467Z,43.17
2018-10-19T05:34:51.092Z,44.93
2018-10-19T05:37:19.554Z,43.35
2018-10-19T05:39:47.283Z,46.63
2018-10-19T05:42:16.827Z,57.33
2018-10-19T05:44:45.656Z,42.78
2018-10-19T05:47:15.381Z,45.35
2018-10-19T05:49:43.789Z,42.15
2018-10-19T05:52:11.382Z,45.73
2018-10-19T05:54:39.666Z,46.58
2018-10-19T05:57:09.371Z,42.70
2018-10-19T05:59:36.852Z,43.80
2018-10-19T06:02:04.528Z,44.73
2018-10-19T06:04:33.510Z,43.13
2018-10-19T06:07:00.878Z,42.10
2018-10-19T06:09:29.358Z,42.50
2018-10-19T06:11:56.711Z,42.00
2018-10-19T06:14:25.323Z,43.95
2018-10-19T06:16:52.759Z,46.00
2018-10-19T06:19:20.438Z,46.13
2018-10-19T06:21:49.698Z,45.48
2018-10-19T06:24:17.680Z,42.80
2018-10-19T06:26:45.247Z,45.10
2018-10-19T06:29:14.906Z,51.10
2018-10-19T06:31:42.110Z,50.90
2018-10-19T06:34:09.513Z,50.45
2018-10-19T06:36:39.287Z,47.95
2018-10-19T06:39:08.024Z,47.38
2018-10-19T06:41:35.373Z,46.90
2018-10-19T06:44:03.722Z,45.10
2018-10-19T06:46:33.636Z,50.20
2018-10-19T06:49:01.931Z,52.78
2018-10-19T06:51:29.400Z,51.50
2018-10-19T06:53:56.849Z,51.65
2018-10-19T06:56:26.678Z,52.98
2018-10-19T06:58:56.360Z,54.00
2018-10-19T07:01:24.030Z,52.88
2018-10-19T07:03:51.465Z,54.93
2018-10-19T07:06:18.886Z,51.33
2018-10-19T07:08:46.859Z,54.77
2018-10-19T07:11:14.496Z,51.50
2018-10-19T07:13:41.863Z,53.95
2018-10-19T07:16:09.241Z,57.58
2018-10-19T07:18:38.517Z,50.52
2018-10-19T07:21:05.858Z,51.83
2018-10-19T07:23:33.161Z,52.98
2018-10-19T07:26:01.643Z,54.42
2018-10-19T07:28:31.600Z,52.75
2018-10-19T07:31:02.703Z,54.85
2018-10-19T07:33:31.775Z,55.17
2018-10-19T07:36:02.164Z,49.83
2018-10-19T07:38:31.665Z,52.65
2018-10-19T07:41:00.692Z,50.60
2018-10-19T07:43:27.966Z,54.25
2018-10-19T07:45:55.768Z,50.95
2018-10-19T07:48:23.330Z,53.30
2018-10-19T07:50:51.629Z,52.45
2018-10-19T07:53:20.708Z,49.90
2018-10-19T07:55:48.867Z,52.43
2018-10-19T07:58:16.190Z,53.30
2018-10-19T08:00:43.647Z,52.13
2018-10-19T08:03:10.888Z,52.67
2018-10-19T08:05:38.473Z,53.50
2018-10-19T08:08:07.457Z,54.73
2018-10-19T08:10:34.724Z,53.35
2018-10-19T08:13:02.282Z,54.15
2018-10-19T08:15:31.652Z,52.00
2018-10-19T08:20:08.636Z,54.45
2018-10-19T08:22:37.868Z,53.92
2018-10-19T08:25:06.892Z,54.00
2018-10-19T08:27:35.183Z,54.53
2018-10-19T08:30:05.382Z,56.37
2018-10-19T08:32:34.505Z,54.35
2018-10-19T08:35:01.984Z,55.33
2018-10-19T08:37:29.959Z,57.38
2018-10-19T08:39:57.425Z,54.63
2018-10-19T08:42:24.771Z,53.15
2018-10-19T08:44:54.393Z,53.75
2018-10-19T08:47:21.777Z,54.33
2018-10-19T08:49:50.421Z,58.80
2018-10-19T08:52:17.803Z,58.58
2018-10-19T08:54:45.263Z,58.58
2018-10-19T08:57:12.900Z,56.23
2018-10-19T08:59:40.366Z,55.97
2018-10-19T09:02:08.290Z,58.33
2018-10-19T09:04:37.492Z,57.67
2018-10-19T09:07:04.978Z,57.23
2018-10-19T09:09:33.089Z,54.55
2018-10-19T09:12:01.726Z,57.80
2018-10-19T09:14:46.029Z,55.47
2018-10-19T09:17:13.574Z,58.35
2018-10-19T09:19:41.072Z,61.48
2018-10-19T09:22:08.462Z,55.52
2018-10-19T09:24:36.472Z,61.00
2018-10-19T09:27:04.487Z,58.87
2018-10-19T09:29:33.127Z,56.30
2018-10-19T09:32:01.199Z,53.70
2018-10-19T09:34:29.238Z,55.50
2018-10-19T09:36:57.231Z,55.70
2018-10-19T09:39:24.695Z,56.50
2018-10-19T09:41:51.969Z,52.70
2018-10-19T09:44:19.440Z,58.20
2018-10-19T09:46:54.379Z,55.03
2018-10-19T09:49:24.692Z,55.07
2018-10-19T09:51:53.395Z,55.60
2018-10-19T09:54:20.771Z,54.07
2018-10-19T09:56:49.203Z,58.20
2018-10-19T09:59:17.285Z,57.07
2018-10-19T10:01:45.675Z,54.47
2018-10-19T10:04:13.862Z,51.47
2018-10-19T10:06:41.363Z,55.30
2018-10-19T10:09:15.009Z,54.00
2018-10-19T10:11:43.483Z,54.33
2018-10-19T10:14:12.046Z,56.00
2018-10-19T10:16:40.859Z,58.10
2018-10-19T10:19:08.503Z,56.90
2018-10-19T10:21:37.481Z,51.30
2018-10-19T10:24:06.279Z,52.37
2018-10-19T10:26:34.796Z,53.23
2018-10-19T10:29:02.277Z,52.20
2018-10-19T10:31:29.788Z,54.87
2018-10-19T10:33:59.422Z,51.53
2018-10-19T10:36:26.856Z,52.37
2018-10-19T10:38:54.319Z,54.53
2018-10-19T10:41:21.620Z,51.80
2018-10-19T10:43:48.956Z,52.80
2018-10-19T10:46:16.460Z,52.37
2018-10-19T10:48:47.733Z,49.33
2018-10-19T10:51:15.722Z,55.07
2018-10-19T10:53:44.641Z,52.60
2018-10-19T10:56:11.909Z,55.70
2018-10-19T10:58:42.143Z,53.17
2018-10-19T11:01:11.753Z,52.70
2018-10-19T11:03:51.703Z,51.70
2018-10-19T11:06:20.757Z,52.60
2018-10-19T11:08:48.760Z,49.00
2018-10-19T11:11:16.672Z,52.97
2018-10-19T11:13:44.476Z,47.10
2018-10-19T11:16:14.157Z,53.30
2018-10-19T11:18:42.318Z,51.40
2018-10-19T11:21:11.171Z,53.70
2018-10-19T11:23:40.788Z,47.83
2018-10-19T11:26:08.351Z,47.30
2018-10-19T11:28:35.868Z,49.87
2018-10-19T11:31:07.352Z,47.30
2018-10-19T11:33:34.813Z,44.80
2018-10-19T11:36:06.276Z,54.70
2018-10-19T11:38:33.889Z,47.63
2018-10-19T11:41:02.339Z,45.83
2018-10-19T11:43:29.606Z,47.90
2018-10-19T11:45:57.679Z,49.70
2018-10-19T11:48:27.438Z,48.10
2018-10-19T11:50:56.739Z,46.10
2018-10-19T11:53:24.114Z,49.27
2018-10-19T11:55:51.441Z,47.57
2018-10-19T11:58:19.748Z,46.57
2018-10-19T12:00:48.014Z,49.80
2018-10-19T12:03:15.977Z,46.23
2018-10-19T12:05:44.457Z,49.67
2018-10-19T12:08:12.376Z,50.47
2018-10-19T12:10:39.872Z,51.87
2018-10-19T12:13:07.307Z,45.97
2018-10-19T12:15:34.737Z,47.33
2018-10-19T12:18:02.137Z,48.10
2018-10-19T12:20:29.566Z,47.83
2018-10-19T12:22:56.900Z,48.63
2018-10-19T12:25:24.331Z,48.93
2018-10-19T12:27:51.748Z,48.43
2018-10-19T12:30:19.212Z,45.07
2018-10-19T12:32:47.963Z,45.70
2018-10-19T12:35:16.242Z,47.07
2018-10-19T12:37:43.641Z,48.77
2018-10-19T12:40:13.597Z,48.50
2018-10-19T12:42:41.030Z,45.87
2018-10-19T12:45:20.249Z,44.50
2018-10-19T12:47:50.190Z,46.50
2018-10-19T12:50:18.915Z,49.57
2018-10-19T12:52:50.933Z,48.50
2018-10-19T12:55:18.955Z,47.93
2018-10-19T12:57:47.530Z,48.70
2018-10-19T13:01:39.395Z,49.13
2018-10-19T13:04:06.805Z,46.17
2018-10-19T13:06:35.298Z,53.87
2018-10-19T13:09:09.059Z,46.83
2018-10-19T13:11:38.055Z,47.17
2018-10-19T13:14:05.545Z,45.03
2018-10-19T13:16:33.074Z,46.67
2018-10-19T13:19:01.683Z,45.77
2018-10-19T13:21:29.760Z,45.57
2018-10-19T13:23:57.260Z,47.80
2018-10-19T13:26:24.963Z,47.23
2018-10-19T13:28:53.250Z,44.33
2018-10-19T13:31:20.763Z,45.20
2018-10-19T13:33:50.298Z,45.70
2018-10-19T13:36:18.986Z,47.47
2018-10-19T13:38:46.935Z,45.17
2018-10-19T13:41:15.183Z,57.60
2018-10-19T13:43:43.076Z,43.97
2018-10-19T13:46:10.711Z,41.83
2018-10-19T13:48:38.622Z,41.13
2018-10-19T13:51:06.186Z,43.63
2018-10-19T13:53:33.414Z,47.17
2018-10-19T13:56:00.696Z,57.47
2018-10-19T13:58:28.546Z,43.60
2018-10-19T14:00:55.832Z,61.30
2018-10-19T14:03:23.142Z,53.43
2018-10-19T14:05:51.539Z,44.47
2018-10-19T14:08:18.804Z,45.10
2018-10-19T14:10:46.743Z,46.93
2018-10-19T14:13:14.368Z,43.87
2018-10-19T14:15:42.239Z,43.63
2018-10-19T14:18:11.140Z,42.53
2018-10-19T14:20:38.498Z,43.67
2018-10-19T14:23:06.833Z,50.80
2018-10-19T14:25:34.228Z,44.10
2018-10-19T14:28:02.135Z,42.27
2018-10-19T14:30:34.368Z,44.30
2018-10-19T14:33:03.021Z,44.10
2018-10-19T14:35:31.625Z,42.30
2018-10-19T14:38:00.314Z,41.80
2018-10-19T14:40:27.700Z,43.50
2018-10-19T14:42:55.996Z,44.00
2018-10-19T14:45:25.376Z,44.10
2018-10-19T14:47:52.792Z,45.30
2018-10-19T14:50:20.274Z,40.30
2018-10-19T14:52:47.703Z,41.77
2018-10-19T14:55:17.493Z,45.30
2018-10-19T14:57:44.917Z,43.00
2018-10-19T15:00:13.618Z,46.60
2018-10-19T15:02:42.462Z,43.37
2018-10-19T15:05:13.175Z,44.50
2018-10-19T15:07:40.529Z,44.23
2018-10-19T15:10:11.681Z,42.07
2018-10-19T15:12:41.489Z,44.13
2018-10-19T15:15:11.660Z,43.93
2018-10-19T15:17:54.233Z,44.30
2018-10-19T15:20:21.549Z,42.43
2018-10-19T15:22:48.959Z,40.13
2018-10-19T15:25:18.460Z,42.60
2018-10-19T15:27:46.285Z,41.67
2018-10-19T15:30:15.866Z,42.03
2018-10-19T15:32:43.250Z,41.90
2018-10-19T15:35:11.184Z,41.30
2018-10-19T15:37:39.180Z,40.33
2018-10-19T15:40:08.255Z,39.30
2018-10-19T15:42:39.535Z,40.70
2018-10-19T15:45:10.764Z,43.13
2018-10-19T15:47:40.302Z,40.23
2018-10-19T15:50:08.127Z,40.93
2018-10-19T15:52:35.425Z,42.10
2018-10-19T15:55:04.930Z,41.20
2018-10-19T15:57:34.506Z,43.53
2018-10-19T16:00:01.970Z,40.33
2018-10-19T16:02:29.246Z,40.70
2018-10-19T16:04:58.253Z,74.13
2018-10-19T16:07:26.348Z,41.97
2018-10-19T16:09:53.670Z,39.53
2018-10-19T16:12:21.036Z,39.97
2018-10-19T16:14:48.403Z,42.43
2018-10-19T16:17:15.717Z,40.33
2018-10-19T16:19:43.046Z,38.43
2018-10-19T16:22:11.364Z,38.93
2018-10-19T16:24:38.726Z,38.30
2018-10-19T16:27:08.283Z,37.10
2018-10-19T16:29:35.772Z,41.47
2018-10-19T16:32:03.289Z,38.50
2018-10-19T16:34:30.675Z,44.30
2018-10-19T16:37:00.028Z,42.27
2018-10-19T16:39:27.316Z,38.70
2018-10-19T16:41:55.299Z,37.80
2018-10-19T16:44:22.628Z,39.33
2018-10-19T16:46:51.286Z,41.17
2018-10-19T16:49:20.531Z,39.47
2018-10-19T16:51:48.341Z,38.63
2018-10-19T16:54:15.834Z,41.30
2018-10-19T16:56:43.346Z,40.80
2018-10-19T16:59:11.056Z,40.17
2018-10-19T17:01:38.855Z,38.80
2018-10-19T17:04:06.510Z,39.13
2018-10-19T17:06:34.588Z,40.47
2018-10-19T17:09:07.238Z,40.17
2018-10-19T17:11:34.538Z,39.20
2018-10-19T17:14:02.183Z,41.80
2018-10-19T17:16:30.766Z,41.60
2018-10-19T17:18:58.293Z,44.67
2018-10-19T17:21:26.709Z,43.70
2018-10-19T17:23:54.349Z,41.87
2018-10-19T17:26:23.411Z,42.03
2018-10-19T17:28:50.786Z,43.27
2018-10-19T17:31:19.334Z,41.90
2018-10-19T17:34:19.339Z,40.90
2018-10-19T17:36:47.482Z,47.83
2018-10-19T17:39:15.386Z,45.30
2018-10-19T17:41:43.006Z,44.80
2018-10-19T17:44:13.249Z,44.93
2018-10-19T17:46:41.660Z,43.70
2018-10-19T17:49:12.105Z,44.37
2018-10-19T17:51:42.384Z,42.43
2018-10-19T17:54:10.284Z,42.27
2018-10-19T17:56:37.533Z,42.10
2018-10-19T17:59:05.092Z,41.80
2018-10-19T18:01:32.449Z,41.30
2018-10-19T18:04:01.258Z,43.80
2018-10-19T18:06:28.752Z,41.73
2018-10-19T18:08:57.594Z,45.37
2018-10-19T18:11:26.258Z,43.37
2018-10-19T18:13:54.082Z,46.43
2018-10-19T18:16:23.015Z,43.57
2018-10-19T18:18:50.450Z,42.90
2018-10-19T18:21:18.010Z,45.73
2018-10-19T18:23:46.145Z,44.33
2018-10-19T18:27:39.255Z,46.37
2018-10-19T18:30:07.108Z,46.70
2018-10-19T18:32:35.518Z,48.47
2018-10-19T18:35:03.024Z,45.80
2018-10-19T18:37:30.874Z,47.53
2018-10-19T18:39:59.134Z,44.83
2018-10-19T18:42:26.511Z,48.53
2018-10-19T18:44:54.276Z,46.07
2018-10-19T18:47:21.944Z,46.30
2018-10-19T18:49:50.288Z,46.80
2018-10-19T18:52:19.841Z,45.23
2018-10-19T18:54:48.622Z,51.43
2018-10-19T18:57:16.193Z,49.73
2018-10-19T18:59:43.921Z,46.50
2018-10-19T19:02:11.491Z,48.43
2018-10-19T19:04:38.842Z,49.17
2018-10-19T19:07:08.621Z,49.23
2018-10-19T19:09:36.675Z,50.80
2018-10-19T19:12:04.317Z,49.77
2018-10-19T19:14:31.767Z,48.30
2018-10-19T19:16:59.097Z,47.85
2018-10-19T19:19:29.172Z,49.40
2018-10-19T19:21:56.574Z,47.63
2018-10-19T19:24:30.389Z,45.12
2018-10-19T19:26:59.282Z,46.27
2018-10-19T19:29:26.639Z,49.73
2018-10-19T19:31:54.240Z,49.42
2018-10-19T19:34:26.040Z,48.42
2018-10-19T19:36:55.225Z,48.93
2018-10-19T19:39:22.515Z,44.77
2018-10-19T19:41:56.655Z,48.00
2018-10-19T19:44:24.078Z,48.65
2018-10-19T19:46:51.480Z,50.33
2018-10-19T19:49:25.019Z,48.55
2018-10-19T19:51:52.503Z,47.23
2018-10-19T19:54:20.929Z,50.78
2018-10-19T19:56:48.893Z,48.40
2018-10-19T19:59:16.340Z,51.73
2018-10-19T20:01:45.054Z,50.12
2018-10-19T20:04:13.475Z,51.60
2018-10-19T20:06:43.105Z,51.50
2018-10-19T20:09:10.438Z,50.23
2018-10-19T20:11:38.083Z,48.95
2018-10-19T20:14:05.625Z,53.80
2018-10-19T20:16:32.916Z,49.27
2018-10-19T20:19:01.969Z,49.67
2018-10-19T20:21:30.239Z,47.85
2018-10-19T20:23:59.531Z,50.35
2018-10-19T20:26:26.865Z,49.03
2018-10-19T20:28:55.201Z,58.52
2018-10-19T20:31:24.099Z,57.15
2018-10-19T20:33:51.699Z,49.50
2018-10-19T20:36:22.176Z,52.67
2018-10-19T20:38:52.391Z,50.33
2018-10-19T20:41:19.782Z,50.03
2018-10-19T20:43:47.054Z,52.50
2018-10-19T20:46:14.672Z,50.88
2018-10-19T20:48:43.774Z,49.65
2018-10-19T20:51:11.227Z,48.60
2018-10-19T20:53:40.253Z,88.05
2018-10-19T20:56:07.756Z,74.55
2018-10-19T20:58:35.233Z,55.00
2018-10-19T21:01:03.459Z,51.08
2018-10-19T21:03:30.843Z,51.75
2018-10-19T21:05:58.086Z,48.55
2018-10-19T21:08:25.486Z,54.00
2018-10-19T21:10:52.889Z,48.55
2018-10-19T21:13:20.326Z,49.73
2018-10-19T21:15:47.646Z,50.90
2018-10-19T21:18:14.978Z,50.12
2018-10-19T21:20:42.246Z,49.40
2018-10-19T21:23:09.583Z,49.05
2018-10-19T21:25:36.974Z,48.85
2018-10-19T21:28:04.798Z,48.50
2018-10-19T21:30:32.133Z,50.40
2018-10-19T21:32:59.534Z,49.98
2018-10-19T21:35:28.742Z,49.35
2018-10-19T21:37:56.307Z,53.08
2018-10-19T21:40:24.663Z,50.00
2018-10-19T21:42:52.052Z,51.05
2018-10-19T21:45:19.505Z,53.00
2018-10-19T21:47:48.637Z,51.15
2018-10-19T21:50:16.001Z,51.18
2018-10-19T21:52:43.486Z,50.52
2018-10-19T21:55:11.468Z,55.12
2018-10-19T21:57:40.861Z,53.65
2018-10-19T22:00:08.827Z,52.35
2018-10-19T22:02:36.966Z,48.73
2018-10-19T22:05:07.303Z,50.70
2018-10-19T22:07:34.950Z,50.23
2018-10-19T22:10:02.311Z,52.20
2018-10-19T22:12:30.918Z,53.73
2018-10-19T22:15:00.481Z,51.28
2018-10-19T22:17:28.551Z,47.95
2018-10-19T22:19:58.747Z,47.73
2018-10-19T22:22:26.050Z,48.58
2018-10-19T22:24:54.256Z,45.88
2018-10-19T22:27:21.594Z,49.00
2018-10-19T22:29:49.212Z,45.65
2018-10-19T22:32:16.549Z,45.33
2018-10-19T22:34:43.847Z,46.58
2018-10-19T22:37:11.260Z,47.60
2018-10-19T22:39:38.575Z,44.38
2018-10-19T22:42:05.872Z,45.15
2018-10-19T22:44:33.668Z,46.23
2018-10-19T22:47:02.052Z,46.18
2018-10-19T22:49:29.364Z,44.48
2018-10-19T22:51:58.394Z,50.45
2018-10-19T22:54:26.331Z,46.28
2018-10-19T22:56:53.608Z,52.73
2018-10-19T22:59:21.508Z,47.70
2018-10-19T23:01:49.046Z,49.03
2018-10-19T23:04:16.438Z,51.20
2018-10-19T23:06:44.016Z,48.68
2018-10-19T23:09:11.438Z,50.95
2018-10-19T23:11:38.823Z,47.38
2018-10-19T23:14:06.265Z,47.40
2018-10-19T23:16:34.088Z,50.52
2018-10-19T23:19:02.146Z,51.30
2018-10-19T23:21:30.562Z,46.92
2018-10-19T23:23:58.419Z,48.13
2018-10-19T23:26:27.469Z,49.03
2018-10-19T23:28:55.543Z,48.70
2018-10-19T23:31:23.961Z,48.25
2018-10-19T23:33:51.134Z,50.78
2018-10-19T23:36:18.556Z,48.85
2018-10-19T23:38:45.877Z,51.77
2018-10-19T23:41:13.425Z,51.53
2018-10-19T23:43:42.131Z,50.23
2018-10-19T23:46:09.428Z,48.78
2018-10-19T23:48:38.732Z,48.05
2018-10-19T23:51:06.072Z,45.85
2018-10-19T23:53:33.355Z,44.63
2018-10-19T23:56:00.882Z,41.02
2018-10-19T23:58:28.651Z,46.85
